Cairns Corner, California
Current Conditions -  °F | °C
As of 2:55 AM on Monday 20 Oct 2014 (Local Time) from KPTV Reporting Station
Clear Clear  
Wind Chill: 59°   Ceiling: Unl
Heat Index: 59°   Visibility: 10mi
Dew Point: 45°   Wind: 0mph
Humidity: 59%   Direction: NA
Pressure: 29.88"   Gusts: NA
Location:  36.2085°N, 119.068°W
Report Text: KPTV 200955Z 00000KT 10SM CLR 15/07 A2988 RMK AO1
Loading
Personal Weather Stations






























Interactive Weather Map
Tropical Storm Tracking
New forecast layout! Learn more

10-Day Weather Forecast

Advertisements
Track Severe Weather on mobile